Tufão NALGAE 2011: trajetória, intensidade e histórico
5/10/2011, 12:00:00
26/09/2011, 12:00:00 – 5/10/2011, 12:00:00
Trajetória histórica
Acompanhe a evolução e o deslocamento de Tufão NALGAE em 2011, com a trajetória completa registrada, ventos máximos sustentados de 130 nós, pressão central mínima e cronologia detalhada.
| Data | Hora | Tipo | Ventokm/h | PressãohPa |
|---|---|---|---|---|
| 05/10 | 12:00 | TDDepressão tropical | 30 | 1008 |
| 05/10 | 09:00 | DBPerturbação tropical | 35 | 1005 |
| 05/10 | 06:00 | TDDepressão tropical | 35 | 1007 |
| 05/10 | 03:00 | TDDepressão tropical | 45 | 1005 |
| 05/10 | 00:00 | TDDepressão tropical | 55 | 1002 |
| 04/10 | 21:00 | TDDepressão tropical | 55 | 1001 |
| 04/10 | 18:00 | TDDepressão tropical | 55 | 1000 |
| 04/10 | 15:00 | TDDepressão tropical | 55 | 1001 |
| 04/10 | 12:00 | TSTempestade tropical | 55 | 1001 |
| 04/10 | 09:00 | TSTempestade tropical | 60 | 999 |
| 04/10 | 06:00 | TSTempestade tropical | 65 | 996 |
| 04/10 | 03:00 | TSTempestade tropical | 70 | 995 |
| 04/10 | 00:00 | TSTempestade tropical | 75 | 993 |
| 03/10 | 21:00 | TSTempestade tropical | 80 | 991 |
| 03/10 | 18:00 | TSTempestade tropical | 85 | 989 |
| 03/10 | 15:00 | TSTempestade tropical | 85 | 989 |
| 03/10 | 12:00 | STSTempestade tropical severa | 85 | 989 |
| 03/10 | 09:00 | TSTempestade tropical | 90 | 987 |
| 03/10 | 06:00 | STSTempestade tropical severa | 95 | 985 |
| 03/10 | 03:00 | TSTempestade tropical | 95 | 985 |
| 03/10 | 00:00 | STSTempestade tropical severa | 95 | 985 |
| 02/10 | 21:00 | TSTempestade tropical | 95 | 985 |
| 02/10 | 18:00 | STSTempestade tropical severa | 95 | 985 |
| 02/10 | 15:00 | TSTempestade tropical | 95 | 985 |
| 02/10 | 12:00 | STSTempestade tropical severa | 95 | 985 |
| 02/10 | 09:00 | TSTempestade tropical | 95 | 985 |
| 02/10 | 06:00 | STSTempestade tropical severa | 95 | 985 |
| 02/10 | 03:00 | TSTempestade tropical | 100 | 984 |
| 02/10 | 00:00 | TTufão | 100 | 982 |
| 01/10 | 21:00 | TTufão | 110 | 978 |
| 01/10 | 18:00 | TTufão | 120 | 974 |
| 01/10 | 15:00 | TTufão | 135 | 969 |
| 01/10 | 12:00 | TTufão | 150 | 963 |
| 01/10 | 09:00 | TTufão | 165 | 956 |
| 01/10 | 06:00 | STSupertufão | 185 | 948 |
| 01/10 | 03:00 | STSupertufão | 215 | 937 |
| 01/10 | 00:00 | STSupertufão | 240 | 926 |
| 30/09 | 21:00 | STSupertufão | 230 | 932 |
| 30/09 | 18:00 | STSupertufão | 215 | 937 |
| 30/09 | 15:00 | STSupertufão | 215 | 937 |
| 30/09 | 12:00 | STSupertufão | 215 | 937 |
| 30/09 | 09:00 | STSupertufão | 200 | 943 |
| 30/09 | 06:00 | STSupertufão | 185 | 948 |
| 30/09 | 03:00 | TTufão | 175 | 952 |
| 30/09 | 00:00 | TTufão | 165 | 956 |
| 29/09 | 21:00 | TTufão | 155 | 960 |
| 29/09 | 18:00 | TTufão | 150 | 963 |
| 29/09 | 15:00 | TTufão | 145 | 965 |
| 29/09 | 12:00 | TTufão | 140 | 967 |
| 29/09 | 09:00 | TTufão | 130 | 971 |
| 29/09 | 06:00 | TTufão | 120 | 974 |
| 29/09 | 03:00 | TTufão | 120 | 974 |
| 29/09 | 00:00 | STSTempestade tropical severa | 120 | 974 |
| 28/09 | 21:00 | TSTempestade tropical | 110 | 978 |
| 28/09 | 18:00 | STSTempestade tropical severa | 100 | 982 |
| 28/09 | 15:00 | TSTempestade tropical | 100 | 984 |
| 28/09 | 12:00 | STSTempestade tropical severa | 95 | 985 |
| 28/09 | 09:00 | TSTempestade tropical | 90 | 987 |
| 28/09 | 06:00 | TSTempestade tropical | 85 | 989 |
| 28/09 | 03:00 | TSTempestade tropical | 80 | 991 |
| 28/09 | 00:00 | TSTempestade tropical | 75 | 993 |
| 27/09 | 21:00 | TSTempestade tropical | 70 | 995 |
| 27/09 | 18:00 | TSTempestade tropical | 65 | 996 |
| 27/09 | 15:00 | TDDepressão tropical | 60 | 998 |
| 27/09 | 12:00 | TDDepressão tropical | 55 | 1000 |
| 27/09 | 09:00 | TDDepressão tropical | 55 | 1000 |
| 27/09 | 06:00 | TDDepressão tropical | 55 | 1000 |
| 27/09 | 03:00 | TDDepressão tropical | 50 | 1002 |
| 27/09 | 00:00 | TDDepressão tropical | 45 | 1004 |
| 26/09 | 21:00 | TDDepressão tropical | 45 | 1006 |
| 26/09 | 18:00 | TDDepressão tropical | 35 | 1007 |
| 26/09 | 15:00 | TDDepressão tropical | 35 | 1007 |
| 26/09 | 12:00 | TDDepressão tropical | 35 | 1007 |
Cronologia de localização
73 Registos de localizaçãoTambém pode encontrar estas ferramentas úteis
A localização, a extensão e o estado de cada evento podem ser atualizados em momentos diferentes consoante a fonte. Confirme decisões importantes junto das autoridades oficiais de emergência.
Os registos de eventos provêm da NASA EONET e são complementados por registos de deslizamentos de terra do USGS FDSN. As análises e previsões de tempestades podem utilizar a NOAA NHC ou o JTWC, com registos históricos ATCF da UCAR/NCAR quando disponíveis. As imagens de satélite provêm da NASA Worldview/GIBS (GOES e Himawari) ou da EUMETSAT Meteosat, consoante a cobertura do mapa.
Fontes: NASA EONET · USGS · NOAA NHC · JTWC · UCAR/NCAR ATCF · NASA Worldview/GIBS · EUMETSAT Meteosat · OpenStreetMap contributors